Sherbrooke, Canada
Current Conditions -  °F | °C
As of 6:48 PM on Thursday 18 Dec 2014 (Local Time) from CYSC Reporting Station
Overcast Overcast  
Wind Chill: 15°   Ceiling: 1200
Heat Index: 27°   Visibility: 9mi
Dew Point: 25°   Wind: 15mph
Humidity: 93%   Direction: 290°WNW
Pressure: 29.82"   Gusts: NA
Location:  45.4°N, 71.89°W
Report Text: CYSC 182348Z AUTO 29013KT 9SM OVC012 M03/M04 A2982 RMK SLP111
Loading
Personal Weather Stations






























Interactive Weather Map New forecast layout! Learn more

10-Day Weather Forecast

Advertisements
Track Severe Weather on mobile